Time;durP1;ratioP1;P1;durP2;ratioP2;P2;SDS_P1;SDS_P2;PMS_P1;PMS_P2;Temp;Humidity;BMP_temperature;BMP_pressure;BME280_temperature;BME280_humidity;BME280_pressure;Samples;Min_cycle;Max_cycle;Signal;HPM_P1;HPM_P2
2022/07/10 00:00:26;;;;;;;;;3.00;2.00;;;;;22.50;54.92;102382.09;5059989;28;45532;-83
2022/07/10 00:02:52;;;;;;;;;2.00;2.00;;;;;22.41;54.85;102379.25;5059613;28;46866;-82
2022/07/10 00:05:19;;;;;;;;;2.25;2.25;;;;;22.39;55.66;102384.47;5061976;28;45812;-81
2022/07/10 00:07:45;;;;;;;;;2.25;1.00;;;;;22.37;54.91;102377.38;5065083;28;45256;-81
2022/07/10 00:10:11;;;;;;;;;1.25;1.25;;;;;22.37;55.13;102380.03;5059591;28;45568;-80
2022/07/10 00:12:37;;;;;;;;;2.75;2.75;;;;;22.27;55.83;102379.84;5059112;28;46100;-82
2022/07/10 00:15:06;;;;;;;;;1.50;1.50;;;;;22.27;55.56;102384.19;5064110;28;45452;-81
2022/07/10 00:17:33;;;;;;;;;2.00;2.00;;;;;22.22;56.46;102385.88;5067320;28;45362;-81
2022/07/10 00:19:59;;;;;;;;;1.75;1.75;;;;;22.13;56.67;102376.00;5061357;28;45238;-81
2022/07/10 00:22:25;;;;;;;;;1.00;1.00;;;;;22.08;56.94;102388.22;5059519;28;46340;-81
2022/07/10 00:24:51;;;;;;;;;2.00;2.00;;;;;22.08;57.64;102390.84;5059085;28;45713;-82
2022/07/10 00:27:17;;;;;;;;;5.00;2.00;;;;;22.06;57.77;102395.19;5058716;28;45402;-82
2022/07/10 00:29:43;;;;;;;;;2.00;2.00;;;;;21.93;58.16;102386.09;5058991;28;45353;-81
2022/07/10 00:32:09;;;;;;;;;2.00;2.00;;;;;21.94;57.99;102398.41;5058505;28;45322;-82
2022/07/10 00:34:35;;;;;;;;;1.75;1.75;;;;;21.88;58.27;102399.16;5058867;28;45291;-82
2022/07/10 00:37:01;;;;;;;;;2.00;2.00;;;;;21.90;58.70;102396.59;5058745;28;45393;-81
2022/07/10 00:39:27;;;;;;;;;2.75;2.75;;;;;21.85;58.76;102387.66;5059214;28;45406;-81
2022/07/10 00:41:52;;;;;;;;;2.00;2.00;;;;;21.80;59.67;102384.91;5058716;28;46167;-81
2022/07/10 00:44:18;;;;;;;;;6.00;2.00;;;;;21.80;60.13;102377.91;5058392;28;45315;-81
2022/07/10 00:46:44;;;;;;;;;2.00;2.00;;;;;21.88;60.28;102396.53;5061192;28;45375;-81
2022/07/10 00:49:09;;;;;;;;;2.00;1.00;;;;;21.85;59.83;102383.28;5063257;28;45367;-81
2022/07/10 00:51:36;;;;;;;;;2.00;2.00;;;;;21.88;60.83;102385.97;5058486;28;45595;-81
2022/07/10 00:54:02;;;;;;;;;3.00;1.75;;;;;21.86;60.94;102378.91;5058356;28;45355;-81
2022/07/10 00:56:28;;;;;;;;;1.00;1.00;;;;;21.79;60.82;102375.22;5057165;28;45459;-81
2022/07/10 00:58:54;;;;;;;;;2.00;2.00;;;;;21.80;61.52;102379.66;5058969;28;45354;-81
2022/07/10 01:01:22;;;;;;;;;2.25;1.50;;;;;21.82;61.59;102380.59;5058016;28;45516;-81
2022/07/10 01:03:48;;;;;;;;;2.00;2.00;;;;;21.82;61.54;102377.94;5057904;28;45296;-81
2022/07/10 01:06:16;;;;;;;;;5.00;2.00;;;;;21.80;61.95;102375.28;5060150;28;45272;-81
2022/07/10 01:08:42;;;;;;;;;1.75;1.75;;;;;21.83;62.32;102366.53;5065494;28;45356;-82
2022/07/10 01:11:09;;;;;;;;;2.50;2.00;;;;;21.83;61.91;102373.53;5063403;28;46297;-81
2022/07/10 01:13:36;;;;;;;;;4.00;3.00;;;;;21.77;61.97;102371.66;5060950;28;45806;-83
2022/07/10 01:16:02;;;;;;;;;3.25;3.25;;;;;21.71;62.30;102369.75;5058185;28;45338;-83
2022/07/10 01:18:28;;;;;;;;;3.00;3.00;;;;;21.67;63.14;102370.56;5058413;28;45231;-82
2022/07/10 01:20:56;;;;;;;;;1.75;1.75;;;;;21.67;63.19;102380.19;5058237;28;45507;-82
2022/07/10 01:23:22;;;;;;;;;3.75;3.00;;;;;21.60;63.96;102385.34;5057036;28;45397;-83
2022/07/10 01:25:50;;;;;;;;;2.00;2.00;;;;;21.53;63.64;102375.47;5058157;28;45399;-82
2022/07/10 01:28:20;;;;;;;;;3.00;2.50;;;;;21.53;63.71;102374.56;5060523;28;45530;-83
2022/07/10 01:30:46;;;;;;;;;4.00;2.50;;;;;21.50;63.70;102368.38;5061499;28;46472;-83
2022/07/10 01:33:11;;;;;;;;;2.50;2.00;;;;;21.52;63.96;102383.31;5056528;28;45409;-82
2022/07/10 01:35:37;;;;;;;;;2.00;2.00;;;;;21.44;64.25;102367.31;5058008;28;45436;-83
2022/07/10 01:38:03;;;;;;;;;3.00;3.00;;;;;21.44;65.20;102377.84;5057858;28;45446;-82
2022/07/10 01:40:28;;;;;;;;;2.00;2.00;;;;;21.38;64.42;102370.69;5057622;28;45417;-83
2022/07/10 01:42:54;;;;;;;;;3.25;2.00;;;;;21.42;64.60;102379.59;5056633;28;45334;-82
2022/07/10 01:45:20;;;;;;;;;3.00;3.00;;;;;21.36;64.87;102369.78;5057552;28;45382;-83
2022/07/10 01:47:46;;;;;;;;;4.25;3.00;;;;;21.34;65.55;102380.28;5057984;28;45247;-82
2022/07/10 01:50:12;;;;;;;;;5.00;2.75;;;;;21.32;65.25;102378.47;5057415;28;45327;-82
2022/07/10 01:52:38;;;;;;;;;2.00;2.00;;;;;21.29;65.92;102381.91;5057549;28;45337;-82
2022/07/10 01:55:05;;;;;;;;;2.00;2.00;;;;;21.18;65.79;102375.47;5061237;28;45335;-83
2022/07/10 01:57:30;;;;;;;;;2.50;2.50;;;;;21.12;66.40;102376.22;5064599;28;45494;-83
2022/07/10 01:59:56;;;;;;;;;2.50;2.00;;;;;21.01;66.75;102372.41;5061152;28;45576;-83
2022/07/10 02:02:22;;;;;;;;;2.75;2.75;;;;;20.95;66.62;102377.50;5059271;28;45966;-82
2022/07/10 02:04:48;;;;;;;;;3.25;2.00;;;;;20.92;66.19;102382.69;5057866;28;45419;-83
2022/07/10 02:07:21;;;;;;;;;3.50;2.00;;;;;20.86;66.45;102380.78;5056226;28;45453;-83
2022/07/10 02:09:47;;;;;;;;;3.50;2.00;;;;;20.88;67.51;102389.63;5059969;28;47272;-82
2022/07/10 02:12:14;;;;;;;;;2.00;2.00;;;;;20.88;67.09;102390.50;5057947;28;45328;-82
2022/07/10 02:14:40;;;;;;;;;5.25;2.25;;;;;20.88;66.62;102387.00;5057915;28;45484;-81
2022/07/10 02:17:07;;;;;;;;;4.00;2.00;;;;;20.87;67.02;102380.81;5057398;28;45608;-81
2022/07/10 02:19:32;;;;;;;;;2.00;2.00;;;;;20.83;66.67;102385.94;5057123;28;46237;-81
2022/07/10 02:21:59;;;;;;;;;3.00;3.00;;;;;20.76;66.85;102378.75;5056747;28;45361;-81
2022/07/10 02:24:24;;;;;;;;;3.50;3.00;;;;;20.78;67.16;102377.06;5057441;28;45340;-81
2022/07/10 02:26:51;;;;;;;;;2.00;2.00;;;;;20.69;67.59;102362.72;5057388;28;45565;-81
2022/07/10 02:29:17;;;;;;;;;2.00;2.00;;;;;20.65;67.48;102365.25;5056690;28;45417;-81
2022/07/10 02:31:43;;;;;;;;;2.00;2.00;;;;;20.68;68.17;102365.34;5056929;28;45350;-81
2022/07/10 02:34:10;;;;;;;;;3.00;2.00;;;;;20.65;67.11;102359.97;5055423;28;45346;-81
2022/07/10 02:36:38;;;;;;;;;2.75;1.75;;;;;20.65;67.09;102347.72;5057159;28;45526;-80
2022/07/10 02:39:06;;;;;;;;;4.00;2.50;;;;;20.71;68.05;102357.53;5056613;28;45461;-81
2022/07/10 02:41:32;;;;;;;;;3.75;3.00;;;;;20.66;67.71;102354.78;5056953;28;45342;-81
2022/07/10 02:43:58;;;;;;;;;3.75;2.00;;;;;20.63;68.52;102345.88;5060300;28;45363;-80
2022/07/10 02:46:25;;;;;;;;;1.00;1.00;;;;;20.65;68.00;102350.34;5064394;28;45391;-80
2022/07/10 02:48:50;;;;;;;;;2.25;1.75;;;;;20.63;68.28;102348.50;5060610;28;46373;-80
2022/07/10 02:51:16;;;;;;;;;3.00;2.00;;;;;20.61;68.21;102352.84;5061130;28;45330;-81
2022/07/10 02:53:42;;;;;;;;;4.00;3.25;;;;;20.53;68.33;102348.25;5056780;28;45479;-81
2022/07/10 02:56:07;;;;;;;;;2.25;2.25;;;;;20.53;68.36;102347.38;5056678;28;45275;-81
2022/07/10 02:58:33;;;;;;;;;3.25;2.25;;;;;20.54;68.16;102346.53;5056510;28;46231;-81
2022/07/10 03:00:59;;;;;;;;;2.00;2.00;;;;;20.57;68.26;102354.53;5056272;28;45267;-81
2022/07/10 03:03:25;;;;;;;;;1.50;1.50;;;;;20.59;68.15;102352.78;5056857;28;45252;-81
2022/07/10 03:05:51;;;;;;;;;3.25;3.25;;;;;20.56;68.44;102361.50;5056770;28;45245;-81
2022/07/10 03:08:16;;;;;;;;;3.00;2.25;;;;;20.52;68.25;102340.31;5056040;28;46063;-81
2022/07/10 03:10:42;;;;;;;;;4.00;3.00;;;;;20.53;68.73;102358.78;5056117;28;45307;-81
2022/07/10 03:13:08;;;;;;;;;3.25;3.25;;;;;20.48;68.37;102352.50;5056168;28;45354;-81
2022/07/10 03:15:33;;;;;;;;;5.00;3.00;;;;;20.48;68.13;102343.72;5056551;28;45363;-81
2022/07/10 03:17:59;;;;;;;;;2.50;2.50;;;;;20.53;68.94;102355.28;5055875;28;45347;-80
2022/07/10 03:20:25;;;;;;;;;3.00;2.00;;;;;20.49;68.55;102351.66;5056512;28;45397;-82
2022/07/10 03:22:50;;;;;;;;;2.25;2.25;;;;;20.40;68.76;102348.78;5056327;28;45319;-82
2022/07/10 03:25:16;;;;;;;;;2.75;2.00;;;;;20.30;69.50;102352.88;5056026;28;45537;-82
2022/07/10 03:27:42;;;;;;;;;5.00;3.25;;;;;20.23;70.09;102343.03;5055400;28;45742;-81
2022/07/10 03:30:08;;;;;;;;;3.25;3.00;;;;;20.27;69.74;102355.41;5058859;28;45472;-81
2022/07/10 03:32:34;;;;;;;;;4.00;3.00;;;;;20.28;69.91;102348.41;5063293;28;45264;-81
2022/07/10 03:35:00;;;;;;;;;3.00;3.00;;;;;20.28;69.63;102346.66;5065119;28;45557;-82
2022/07/10 03:37:25;;;;;;;;;5.00;3.00;;;;;20.25;70.07;102338.66;5059865;28;45338;-81
2022/07/10 03:39:51;;;;;;;;;5.00;4.00;;;;;20.28;70.20;102340.53;5056278;28;45417;-82
2022/07/10 03:42:17;;;;;;;;;6.00;2.75;;;;;20.32;69.76;102345.91;5055817;28;45376;-81
2022/07/10 03:44:43;;;;;;;;;4.00;4.00;;;;;20.29;70.10;102334.41;5056183;28;45314;-81
2022/07/10 03:47:09;;;;;;;;;4.00;3.00;;;;;20.28;69.87;102332.63;5055609;28;45403;-82
2022/07/10 03:49:34;;;;;;;;;5.50;4.00;;;;;20.29;70.72;102331.78;5055911;28;45428;-82
2022/07/10 03:52:01;;;;;;;;;4.00;2.75;;;;;20.32;70.56;102335.41;5055458;28;45385;-82
2022/07/10 03:54:28;;;;;;;;;4.75;2.25;;;;;20.30;70.30;102330.94;5056234;28;45469;-80
2022/07/10 03:59:37;;;;;;;;;3.75;3.00;;;;;20.24;70.37;102343.06;5055794;28;45847;-82
2022/07/10 04:02:03;;;;;;;;;3.00;3.00;;;;;20.20;71.01;102340.28;5055763;28;45290;-82
2022/07/10 04:04:29;;;;;;;;;4.00;4.00;;;;;20.15;70.76;102331.34;5056038;28;45305;-82
2022/07/10 04:06:54;;;;;;;;;3.25;3.25;;;;;20.12;70.56;102332.16;5055896;28;45281;-82
2022/07/10 04:09:20;;;;;;;;;2.50;2.50;;;;;20.15;71.38;102336.63;5057902;28;45266;-80
2022/07/10 04:11:46;;;;;;;;;3.00;3.00;;;;;20.14;71.72;102335.75;5063087;28;45430;-81
2022/07/10 04:14:11;;;;;;;;;6.00;4.00;;;;;20.08;71.77;102330.31;5055591;28;45354;-81
2022/07/10 04:16:37;;;;;;;;;3.00;3.00;;;;;20.08;72.38;102343.47;5055462;28;46040;-82
2022/07/10 04:19:02;;;;;;;;;2.25;2.25;;;;;20.17;71.82;102346.38;5055140;28;45300;-81
2022/07/10 04:21:28;;;;;;;;;2.75;2.25;;;;;20.25;71.78;102354.44;5061969;28;45318;-81
2022/07/10 04:23:54;;;;;;;;;3.00;3.00;;;;;20.18;71.66;102340.25;5063746;28;45302;-82
2022/07/10 04:26:19;;;;;;;;;3.00;3.00;;;;;20.20;71.31;102340.28;5060782;28;45513;-82
2022/07/10 04:28:45;;;;;;;;;3.00;3.00;;;;;20.19;71.43;102338.50;5056089;28;45552;-81
2022/07/10 04:31:11;;;;;;;;;4.50;3.50;;;;;20.16;71.09;102344.56;5054177;28;45465;-81
2022/07/10 04:33:37;;;;;;;;;4.00;3.00;;;;;20.16;71.60;102343.66;5055887;28;45468;-80
2022/07/10 04:36:02;;;;;;;;;4.00;4.00;;;;;20.18;71.41;102348.16;5055026;28;45350;-80
2022/07/10 04:38:28;;;;;;;;;5.50;4.00;;;;;20.14;71.49;102338.38;5055297;28;45272;-80
2022/07/10 04:40:54;;;;;;;;;5.25;5.25;;;;;20.21;72.03;102349.97;5058281;28;45439;-80
2022/07/10 04:43:19;;;;;;;;;4.75;3.50;;;;;20.14;71.95;102341.00;5058708;28;45216;-80
2022/07/10 04:45:45;;;;;;;;;3.75;3.75;;;;;20.15;72.01;102341.88;5058422;28;46305;-80
2022/07/10 04:48:10;;;;;;;;;2.00;2.00;;;;;20.13;71.72;102338.34;5058691;28;45438;-81
2022/07/10 04:50:36;;;;;;;;;3.75;3.00;;;;;20.09;71.83;102339.97;5062057;28;45429;-80
2022/07/10 04:53:02;;;;;;;;;5.00;3.25;;;;;20.14;71.29;102345.38;5059891;28;45330;-80
2022/07/10 04:55:27;;;;;;;;;4.75;3.75;;;;;20.06;71.88;102332.00;5058466;28;45363;-80
2022/07/10 04:57:53;;;;;;;;;3.00;3.00;;;;;20.10;71.89;102349.63;5057212;28;45327;-81
2022/07/10 05:00:19;;;;;;;;;4.00;4.00;;;;;20.11;71.39;102338.28;5058080;28;45335;-80
2022/07/10 05:02:44;;;;;;;;;4.75;3.75;;;;;20.16;71.35;102344.56;5058415;28;45441;-81
2022/07/10 05:05:10;;;;;;;;;3.00;3.00;;;;;20.16;71.28;102355.09;5058020;28;45621;-81
2022/07/10 05:07:35;;;;;;;;;5.00;4.00;;;;;20.06;70.91;102338.13;5058211;28;45331;-80
2022/07/10 05:10:01;;;;;;;;;2.00;2.00;;;;;20.01;71.50;102334.50;5064858;28;45309;-80
2022/07/10 05:12:27;;;;;;;;;4.25;3.00;;;;;20.01;71.53;102345.00;5064833;28;45322;-80
2022/07/10 05:14:52;;;;;;;;;4.00;3.00;;;;;20.00;72.12;102345.84;5060185;28;45240;-80
2022/07/10 05:17:18;;;;;;;;;3.75;3.75;;;;;19.97;72.33;102348.38;5058033;28;45257;-80
2022/07/10 05:19:43;;;;;;;;;4.75;3.50;;;;;19.94;72.39;102353.53;5058022;28;45186;-80
2022/07/10 05:22:09;;;;;;;;;6.00;6.00;;;;;19.95;71.88;102347.44;5057924;28;45384;-80
2022/07/10 05:24:35;;;;;;;;;6.00;5.00;;;;;19.99;72.56;102354.59;5057953;28;46276;-80
2022/07/10 05:27:01;;;;;;;;;4.00;4.00;;;;;19.96;72.77;102346.59;5057857;28;45329;-80
2022/07/10 05:29:26;;;;;;;;;4.75;3.50;;;;;20.02;72.99;102353.78;5058127;28;45432;-81
2022/07/10 05:31:52;;;;;;;;;4.25;3.75;;;;;20.04;72.24;102352.97;5060321;28;45335;-81
2022/07/10 05:34:17;;;;;;;;;5.75;4.50;;;;;20.07;72.53;102366.22;5057887;28;45631;-81
2022/07/10 05:36:43;;;;;;;;;7.00;5.75;;;;;20.04;71.99;102366.13;5057850;28;45275;-81
2022/07/10 05:39:09;;;;;;;;;4.25;4.00;;;;;20.08;72.33;102360.13;5058654;28;45482;-81
2022/07/10 05:41:34;;;;;;;;;6.00;5.00;;;;;20.10;71.74;102354.88;5057888;28;45429;-83
2022/07/10 05:44:00;;;;;;;;;3.00;3.00;;;;;20.16;71.24;102356.81;5057246;28;45649;-81
2022/07/10 05:46:26;;;;;;;;;2.75;2.50;;;;;20.19;70.68;102362.19;5058059;28;45271;-81
2022/07/10 05:48:51;;;;;;;;;3.00;3.00;;;;;20.15;71.19;102365.53;5057976;28;45807;-81
2022/07/10 05:51:17;;;;;;;;;4.25;4.00;;;;;20.18;71.32;102357.75;5057190;28;45947;-81
2022/07/10 05:53:43;;;;;;;;;6.00;5.00;;;;;20.28;70.93;102365.06;5058120;28;46262;-83
2022/07/10 05:56:08;;;;;;;;;6.50;5.25;;;;;20.28;71.03;102367.69;5057432;28;45255;-82
2022/07/10 05:58:34;;;;;;;;;6.75;3.50;;;;;20.18;70.71;102355.13;5064086;28;45208;-81
2022/07/10 06:01:00;;;;;;;;;4.25;3.25;;;;;20.25;71.29;102372.88;5064334;28;45351;-82
2022/07/10 06:03:26;;;;;;;;;3.00;3.00;;;;;20.22;70.60;102365.78;5058748;28;45373;-82
2022/07/10 06:05:51;;;;;;;;;3.50;3.50;;;;;20.31;70.50;102374.78;5057932;28;45319;-82
2022/07/10 06:08:17;;;;;;;;;3.75;3.75;;;;;20.31;70.62;102361.63;5058545;28;45484;-83
2022/07/10 06:10:45;;;;;;;;;3.00;3.00;;;;;20.29;70.73;102358.09;5060293;28;45369;-81
2022/07/10 06:13:12;;;;;;;;;5.00;4.25;;;;;20.31;70.23;102364.25;5057262;28;45396;-81
2022/07/10 06:15:38;;;;;;;;;4.00;4.00;;;;;20.29;70.79;102365.97;5057052;28;45745;-82
2022/07/10 06:18:03;;;;;;;;;4.00;4.00;;;;;20.32;70.29;102358.16;5057129;28;45271;-81
2022/07/10 06:20:31;;;;;;;;;4.25;4.25;;;;;20.45;70.22;102367.31;5057277;28;45302;-82
2022/07/10 06:22:57;;;;;;;;;4.75;4.00;;;;;20.44;70.29;102357.66;5057170;28;45370;-82
2022/07/10 06:25:23;;;;;;;;;4.25;4.00;;;;;20.45;69.67;102356.81;5057152;28;45772;-81
2022/07/10 06:27:49;;;;;;;;;3.25;3.25;;;;;20.47;69.66;102362.97;5057034;28;45284;-82
2022/07/10 06:30:15;;;;;;;;;3.00;3.00;;;;;20.46;69.52;102358.59;5056905;28;45445;-82
2022/07/10 06:32:41;;;;;;;;;4.25;4.25;;;;;20.47;70.05;102357.72;5056662;28;46303;-82
2022/07/10 06:35:07;;;;;;;;;4.25;4.25;;;;;20.50;69.58;102357.81;5055316;28;45876;-82
2022/07/10 06:37:33;;;;;;;;;5.25;4.75;;;;;20.50;69.61;102363.06;5056776;28;45236;-83
2022/07/10 06:39:59;;;;;;;;;4.25;3.00;;;;;20.53;70.11;102371.94;5056963;28;45343;-81
2022/07/10 06:42:25;;;;;;;;;3.75;3.00;;;;;20.51;69.62;102365.75;5056678;28;45320;-82
2022/07/10 06:44:51;;;;;;;;;5.00;3.25;;;;;20.49;69.69;102353.38;5057444;28;45250;-82
2022/07/10 06:50:07;;;;;;;;;4.00;4.00;;;;;20.60;69.25;102359.84;5062395;28;45318;-82
2022/07/10 06:52:33;;;;;;;;;5.25;5.00;;;;;20.66;68.96;102361.75;5060906;28;45321;-83
2022/07/10 06:55:00;;;;;;;;;3.75;3.75;;;;;20.70;67.89;102361.88;5058635;28;45346;-83
2022/07/10 06:57:26;;;;;;;;;4.00;4.00;;;;;20.68;66.80;102355.69;5057270;28;45265;-83
2022/07/10 06:59:52;;;;;;;;;5.50;3.25;;;;;20.71;66.34;102354.91;5057318;28;45492;-83
2022/07/10 07:02:18;;;;;;;;;3.25;3.25;;;;;20.71;66.11;102352.28;5054765;28;47223;-83
2022/07/10 07:04:47;;;;;;;;;2.50;2.50;;;;;20.78;65.64;102362.13;5057283;28;45864;-83
2022/07/10 07:07:13;;;;;;;;;6.00;4.00;;;;;20.82;65.17;102365.75;5060667;28;45228;-84
2022/07/10 07:09:39;;;;;;;;;4.50;4.50;;;;;20.85;65.12;102361.44;5057601;28;45499;-83
2022/07/10 07:12:05;;;;;;;;;4.50;4.00;;;;;20.93;64.64;102363.41;5055650;28;46062;-83
2022/07/10 07:14:31;;;;;;;;;5.50;3.00;;;;;20.96;64.40;102361.75;5056316;28;45277;-81
2022/07/10 07:16:59;;;;;;;;;4.50;3.00;;;;;21.05;63.51;102352.31;5056010;28;45336;-81
2022/07/10 07:19:31;;;;;;;;;3.25;3.25;;;;;21.11;63.01;102357.75;5056472;28;45400;-82
2022/07/10 07:24:51;;;;;;;;;4.00;4.00;;;;;21.18;62.32;102354.41;5055039;28;45728;-82
2022/07/10 07:27:17;;;;;;;;;1.00;1.00;;;;;21.26;61.73;102360.75;5055997;28;45410;-83
2022/07/10 07:29:43;;;;;;;;;2.25;2.25;;;;;21.25;61.16;102351.06;5057530;28;45586;-83
2022/07/10 07:32:09;;;;;;;;;3.75;2.50;;;;;21.29;61.33;102357.28;5057008;28;45356;-81
2022/07/10 07:34:35;;;;;;;;;1.75;1.75;;;;;21.32;61.33;102352.13;5058925;28;45321;-82
2022/07/10 07:37:01;;;;;;;;;4.75;3.00;;;;;21.27;61.58;102344.09;5059608;28;45373;-82
2022/07/10 07:39:26;;;;;;;;;4.00;3.00;;;;;21.23;60.95;102334.31;5057148;28;45498;-82
2022/07/10 07:41:52;;;;;;;;;3.50;2.50;;;;;21.25;61.75;102332.63;5056878;28;45288;-83
2022/07/10 07:44:17;;;;;;;;;4.50;4.50;;;;;21.24;61.92;102327.31;5055836;28;45334;-82
2022/07/10 07:46:44;;;;;;;;;4.75;4.00;;;;;21.25;61.66;102329.13;5056503;28;45437;-82
2022/07/10 07:49:09;;;;;;;;;5.00;4.25;;;;;21.25;61.21;102324.72;5056309;28;45465;-83
2022/07/10 07:51:35;;;;;;;;;8.00;5.50;;;;;21.24;61.56;102320.31;5055547;28;46162;-84
2022/07/10 07:54:01;;;;;;;;;5.50;5.50;;;;;21.23;61.95;102312.38;5055267;28;45227;-84
2022/07/10 07:56:26;;;;;;;;;3.00;3.00;;;;;21.31;61.53;102322.25;5056249;28;45363;-83
2022/07/10 07:58:52;;;;;;;;;4.00;4.00;;;;;21.40;60.95;102336.50;5054628;28;45449;-83
2022/07/10 08:01:19;;;;;;;;;3.00;3.00;;;;;21.41;60.42;102335.66;5054773;28;46270;-82
2022/07/10 08:03:45;;;;;;;;;3.00;3.00;;;;;21.41;60.92;102335.66;5054968;28;45766;-84
2022/07/10 08:06:11;;;;;;;;;3.25;3.25;;;;;21.47;60.85;102326.16;5053633;28;45377;-83
2022/07/10 08:08:37;;;;;;;;;6.25;3.25;;;;;21.56;60.43;102336.00;5056128;28;45711;-83
2022/07/10 08:11:02;;;;;;;;;10.50;8.75;;;;;21.59;60.43;102337.88;5057393;28;46153;-82
2022/07/10 08:13:29;;;;;;;;;3.00;3.00;;;;;21.62;60.32;102322.09;5055945;28;45414;-81
2022/07/10 08:15:54;;;;;;;;;7.00;5.00;;;;;21.59;59.70;102312.41;5059251;28;45437;-83
2022/07/10 08:18:20;;;;;;;;;2.50;2.50;;;;;21.65;58.41;102323.06;5058323;28;45394;-84
2022/07/10 08:20:45;;;;;;;;;2.25;2.25;;;;;21.67;57.68;102317.84;5057289;28;46383;-83
2022/07/10 08:23:11;;;;;;;;;3.50;3.50;;;;;21.73;57.38;102325.88;5059732;28;45352;-81
2022/07/10 08:25:36;;;;;;;;;2.50;2.50;;;;;21.73;57.62;102323.25;5066043;28;45347;-83
2022/07/10 08:28:05;;;;;;;;;4.00;3.00;;;;;21.76;57.56;102327.69;5062245;28;45556;-80
2022/07/10 08:30:31;;;;;;;;;6.25;4.00;;;;;21.81;57.07;102323.44;5057738;28;47771;-80
2022/07/10 08:32:57;;;;;;;;;4.00;3.75;;;;;21.85;55.97;102319.09;5058450;28;45256;-80
2022/07/10 08:35:23;;;;;;;;;4.00;4.00;;;;;21.91;55.51;102325.41;5058508;28;45273;-80
2022/07/10 08:37:48;;;;;;;;;3.00;2.25;;;;;21.92;54.63;102321.03;5057109;28;45513;-82
2022/07/10 08:40:16;;;;;;;;;2.75;2.75;;;;;21.95;54.48;102322.00;5057913;28;45769;-82
2022/07/10 08:42:46;;;;;;;;;3.50;3.50;;;;;22.00;54.47;102324.72;5058132;28;45794;-81
2022/07/10 08:45:13;;;;;;;;;3.00;3.00;;;;;21.98;54.31;102297.44;5058283;28;45339;-80
2022/07/10 08:47:41;;;;;;;;;7.00;4.00;;;;;22.01;53.98;102300.13;5058780;28;45305;-83
2022/07/10 08:50:17;;;;;;;;;3.50;3.00;;;;;22.13;53.11;102311.81;5059158;28;45602;-82
2022/07/10 08:52:46;;;;;;;;;3.00;3.00;;;;;22.09;53.77;102306.47;5060546;28;45441;-84
2022/07/10 08:55:13;;;;;;;;;2.00;2.00;;;;;22.17;54.01;102295.16;5057777;28;45929;-82
2022/07/10 08:57:40;;;;;;;;;3.75;3.00;;;;;22.24;53.97;102305.00;5059426;28;45501;-84
2022/07/10 09:00:07;;;;;;;;;4.00;3.00;;;;;22.29;53.81;102291.91;5058273;28;46040;-82
2022/07/10 09:02:35;;;;;;;;;4.25;4.25;;;;;22.28;54.04;102288.34;5056753;28;45719;-84
2022/07/10 09:05:06;;;;;;;;;3.00;2.00;;;;;22.30;53.71;102293.69;5056342;28;45473;-84
2022/07/10 09:07:41;;;;;;;;;2.00;2.00;;;;;22.34;54.04;102284.94;5056531;28;45456;-82
2022/07/10 09:10:09;;;;;;;;;2.75;2.00;;;;;22.36;53.82;102284.13;5057296;28;46391;-83
2022/07/10 09:12:56;;;;;;;;;3.00;3.00;;;;;22.40;53.40;102275.44;5060225;28;45397;-80
2022/07/10 09:15:31;;;;;;;;;5.00;3.50;;;;;22.47;53.28;102278.19;5064059;28;45618;-84
2022/07/10 09:18:00;;;;;;;;;4.50;3.00;;;;;22.51;52.61;102282.66;5061271;28;45388;-83
2022/07/10 09:20:37;;;;;;;;;4.00;3.00;;;;;22.50;52.61;102268.59;5060867;28;45427;-82
2022/07/10 09:23:22;;;;;;;;;3.00;3.00;;;;;22.52;52.30;102269.50;5060236;28;45315;-83
2022/07/10 09:25:50;;;;;;;;;3.00;3.00;;;;;22.59;52.22;102278.41;5058139;28;45469;-82
2022/07/10 09:28:25;;;;;;;;;6.50;5.00;;;;;22.59;52.37;102273.13;5056508;28;45454;-83
2022/07/10 09:30:51;;;;;;;;;4.75;3.00;;;;;22.60;52.04;102279.31;5056734;28;47560;-83
2022/07/10 09:33:26;;;;;;;;;5.00;1.25;;;;;22.67;51.84;102278.56;5059209;28;45701;-84
2022/07/10 09:36:05;;;;;;;;;4.00;4.00;;;;;22.70;51.93;102281.25;5057437;28;45913;-84
2022/07/10 09:38:52;;;;;;;;;4.00;4.00;;;;;22.70;51.81;102276.84;5057584;28;45280;-83
2022/07/10 09:41:23;;;;;;;;;1.75;1.50;;;;;22.70;51.96;102276.84;5056877;28;46618;-82
2022/07/10 09:44:05;;;;;;;;;4.50;3.00;;;;;22.76;51.91;102277.84;5055676;28;45454;-83
2022/07/10 09:46:34;;;;;;;;;3.00;3.00;;;;;22.79;51.75;102275.25;5055768;28;45449;-83
2022/07/10 09:49:07;;;;;;;;;4.50;2.00;;;;;22.80;51.70;102266.47;5056987;28;45569;-83
2022/07/10 09:51:38;;;;;;;;;2.75;2.75;;;;;22.87;51.12;102269.22;5057209;28;45844;-84
2022/07/10 09:54:05;;;;;;;;;4.00;4.00;;;;;22.83;51.39;102272.72;5055446;28;45443;-85
2022/07/10 09:56:43;;;;;;;;;2.00;2.00;;;;;22.91;51.11;102259.59;5057792;28;45639;-84
2022/07/10 09:59:11;;;;;;;;;3.75;3.75;;;;;22.87;51.07;102247.22;5055937;28;45445;-83
2022/07/10 10:01:40;;;;;;;;;3.50;3.50;;;;;23.01;50.93;102260.66;5060090;28;45626;-83
2022/07/10 10:04:08;;;;;;;;;5.75;4.00;;;;;22.99;50.47;102255.38;5061730;28;45624;-83
2022/07/10 10:06:37;;;;;;;;;7.25;7.25;;;;;23.06;50.92;102253.69;5056132;28;45244;-82
2022/07/10 10:09:21;;;;;;;;;3.75;3.75;;;;;23.17;50.57;102272.38;5057563;28;45351;-82
2022/07/10 10:11:49;;;;;;;;;2.75;2.75;;;;;23.19;50.41;102260.09;5059653;28;46761;-84
2022/07/10 10:14:18;;;;;;;;;2.00;2.00;;;;;23.20;49.66;102253.97;5063302;28;45622;-83
2022/07/10 10:16:46;;;;;;;;;2.50;2.25;;;;;23.27;49.54;102255.81;5057092;28;45339;-83
2022/07/10 10:21:58;;;;;;;;;2.75;2.75;;;;;23.32;48.91;102256.75;5056125;28;45728;-81
2022/07/10 10:24:25;;;;;;;;;5.00;2.00;;;;;23.33;49.26;102255.03;5057466;28;45367;-82
2022/07/10 10:26:52;;;;;;;;;1.75;1.75;;;;;23.28;48.86;102251.41;5056570;28;45240;-83
2022/07/10 10:29:17;;;;;;;;;3.00;3.00;;;;;23.33;49.32;102257.66;5056301;28;45417;-82
2022/07/10 10:31:43;;;;;;;;;4.75;4.00;;;;;23.39;49.16;102251.59;5056177;28;45308;-82
2022/07/10 10:34:09;;;;;;;;;1.75;1.75;;;;;23.37;49.04;102235.72;5056226;28;45207;-81
2022/07/10 10:36:47;;;;;;;;;2.00;2.00;;;;;23.45;48.58;102249.00;5055735;28;45334;-83
2022/07/10 10:39:19;;;;;;;;;3.00;2.25;;;;;23.42;49.57;102231.38;5056208;28;45376;-82
2022/07/10 10:41:52;;;;;;;;;2.00;2.00;;;;;23.53;49.01;102236.81;5056381;28;46300;-83
2022/07/10 10:44:18;;;;;;;;;2.25;2.00;;;;;23.58;48.80;102232.47;5055818;28;45227;-82
2022/07/10 10:47:09;;;;;;;;;2.00;2.00;;;;;23.62;48.95;102234.28;5061174;28;45387;-83
2022/07/10 10:49:49;;;;;;;;;3.75;1.75;;;;;23.60;48.65;102221.91;5055642;28;45411;-82
2022/07/10 10:52:16;;;;;;;;;3.50;2.00;;;;;23.65;48.69;102222.84;5062841;28;45236;-83
2022/07/10 10:54:57;;;;;;;;;2.25;2.25;;;;;23.68;49.02;102216.72;5060924;28;45235;-83
2022/07/10 10:57:31;;;;;;;;;2.25;2.25;;;;;23.68;48.83;102216.72;5059741;28;45353;-81
2022/07/10 10:59:58;;;;;;;;;3.25;2.25;;;;;23.72;49.02;102222.06;5058721;28;45293;-79
2022/07/10 11:02:41;;;;;;;;;2.00;2.00;;;;;23.74;49.30;102217.69;5057229;28;45488;-82
2022/07/10 11:05:13;;;;;;;;;3.00;3.00;;;;;23.80;48.81;102209.84;5056038;28;45875;-82
2022/07/10 11:08:03;;;;;;;;;5.00;4.00;;;;;23.86;48.94;102210.75;5056274;28;45473;-82
2022/07/10 11:10:35;;;;;;;;;2.00;2.00;;;;;23.85;48.88;102201.97;5054591;28;45518;-83
2022/07/10 11:13:06;;;;;;;;;6.25;3.50;;;;;23.93;49.24;102194.09;5055333;28;46597;-81
2022/07/10 11:15:36;;;;;;;;;3.00;3.00;;;;;23.98;49.38;102191.53;5056428;28;45312;-80
2022/07/10 11:18:10;;;;;;;;;5.00;3.50;;;;;24.01;49.13;102192.47;5055776;28;45859;-82
2022/07/10 11:20:49;;;;;;;;;6.00;3.50;;;;;24.06;48.49;102193.38;5056318;28;45387;-82
2022/07/10 11:23:36;;;;;;;;;6.00;4.75;;;;;24.09;48.72;102188.13;5055743;28;46530;-80
2022/07/10 11:26:11;;;;;;;;;2.00;2.00;;;;;24.14;48.65;102184.63;5054282;28;45397;-82
2022/07/10 11:28:59;;;;;;;;;2.00;2.00;;;;;24.18;48.78;102184.72;5056159;28;45276;-80
2022/07/10 11:31:26;;;;;;;;;4.00;3.75;;;;;24.16;49.07;102167.94;5056347;28;45252;-81
2022/07/10 11:33:54;;;;;;;;;3.00;3.00;;;;;24.22;49.15;102177.69;5056097;28;45458;-81
2022/07/10 11:36:25;;;;;;;;;2.75;2.75;;;;;24.25;49.14;102173.31;5054178;28;45636;-82